createdAt,value
2023-03-02T00:00:41.148Z,5.10
2023-03-02T00:03:08.283Z,4.55
2023-03-02T00:05:37.184Z,5.55
2023-03-02T00:08:04.438Z,5.10
2023-03-02T00:10:31.439Z,5.07
2023-03-02T00:12:59.220Z,4.93
2023-03-02T00:15:26.693Z,4.72
2023-03-02T00:17:53.328Z,5.55
2023-03-02T00:20:20.028Z,4.88
2023-03-02T00:22:47.314Z,5.18
2023-03-02T00:25:15.900Z,5.03
2023-03-02T00:27:43.093Z,4.57
2023-03-02T00:30:11.958Z,4.78
2023-03-02T00:32:38.562Z,5.68
2023-03-02T00:35:05.976Z,5.85
2023-03-02T00:37:32.672Z,5.82
2023-03-02T00:39:59.531Z,4.72
2023-03-02T00:42:26.195Z,5.93
2023-03-02T00:44:53.744Z,5.00
2023-03-02T00:47:20.370Z,6.22
2023-03-02T00:49:49.505Z,5.47
2023-03-02T00:52:17.081Z,5.18
2023-03-02T00:54:43.671Z,6.00
2023-03-02T00:57:10.737Z,5.53
2023-03-02T00:59:38.466Z,5.85
2023-03-02T01:02:14.645Z,6.13
2023-03-02T01:04:44.833Z,5.68
2023-03-02T01:07:15.829Z,5.53
2023-03-02T01:09:44.447Z,3.85
2023-03-02T01:12:11.833Z,5.00
2023-03-02T01:14:40.010Z,5.53
2023-03-02T01:17:07.469Z,5.45
2023-03-02T01:19:34.864Z,4.88
2023-03-02T01:22:02.104Z,5.28
2023-03-02T01:24:28.789Z,5.80
2023-03-02T01:26:55.362Z,5.82
2023-03-02T01:29:22.270Z,4.80
2023-03-02T01:31:48.952Z,5.47
2023-03-02T01:34:15.690Z,6.10
2023-03-02T01:36:45.517Z,5.55
2023-03-02T01:41:45.021Z,5.40
2023-03-02T01:44:33.809Z,6.18
2023-03-02T01:47:00.697Z,5.70
2023-03-02T01:49:28.123Z,5.75
2023-03-02T01:51:58.523Z,5.35
2023-03-02T01:54:25.780Z,5.72
2023-03-02T01:57:01.924Z,6.13
2023-03-02T01:59:31.439Z,5.53
2023-03-02T02:02:01.727Z,6.00
2023-03-02T02:04:31.038Z,5.82
2023-03-02T02:07:08.938Z,5.45
2023-03-02T02:09:48.948Z,5.70
2023-03-02T02:12:18.514Z,5.63
2023-03-02T02:14:46.133Z,5.70
2023-03-02T02:17:13.747Z,5.50
2023-03-02T02:19:58.483Z,5.70
2023-03-02T02:22:49.599Z,6.22
2023-03-02T02:25:53.066Z,5.60
2023-03-02T02:28:25.113Z,5.32
2023-03-02T02:31:23.877Z,5.30
2023-03-02T02:33:55.392Z,6.10
2023-03-02T02:36:33.474Z,5.80
2023-03-02T02:39:06.573Z,5.65
2023-03-02T02:41:39.158Z,5.55
2023-03-02T02:44:07.099Z,6.03
2023-03-02T02:46:34.445Z,5.18
2023-03-02T02:49:02.985Z,5.45
2023-03-02T02:51:29.906Z,5.15
2023-03-02T02:54:01.803Z,5.20
2023-03-02T02:56:38.225Z,5.30
2023-03-02T02:59:16.210Z,5.38
2023-03-02T03:01:44.502Z,5.80
2023-03-02T03:04:14.175Z,5.43
2023-03-02T03:06:51.006Z,5.68
2023-03-02T03:09:20.108Z,5.70
2023-03-02T03:11:52.243Z,6.55
2023-03-02T03:14:25.310Z,6.15
2023-03-02T03:16:53.162Z,5.65
2023-03-02T03:19:22.666Z,5.72
2023-03-02T03:21:53.081Z,5.88
2023-03-02T03:24:21.547Z,5.45
2023-03-02T03:26:49.252Z,5.68
2023-03-02T03:29:18.609Z,5.65
2023-03-02T03:31:47.904Z,5.40
2023-03-02T03:34:14.658Z,5.32
2023-03-02T03:36:43.309Z,5.50
2023-03-02T03:39:11.414Z,6.27
2023-03-02T03:41:38.519Z,6.30
2023-03-02T03:44:06.925Z,5.72
2023-03-02T03:46:36.341Z,6.00
2023-03-02T03:49:04.412Z,5.13
2023-03-02T03:51:35.685Z,5.53
2023-03-02T03:54:08.232Z,4.75
2023-03-02T03:56:44.979Z,5.80
2023-03-02T03:59:18.519Z,5.20
2023-03-02T04:01:54.291Z,6.13
2023-03-02T04:04:34.153Z,5.47
2023-03-02T04:07:04.716Z,5.43
2023-03-02T04:09:37.831Z,5.78
2023-03-02T04:12:07.576Z,6.03
2023-03-02T04:14:34.851Z,5.57
2023-03-02T04:17:05.364Z,6.18
2023-03-02T04:19:35.488Z,6.18
2023-03-02T04:22:04.072Z,5.97
2023-03-02T04:24:32.374Z,5.72
2023-03-02T04:27:01.710Z,5.47
2023-03-02T04:29:29.005Z,5.90
2023-03-02T04:31:55.848Z,6.05
2023-03-02T04:34:25.581Z,6.10
2023-03-02T04:36:52.900Z,5.88
2023-03-02T04:39:20.798Z,5.53
2023-03-02T04:41:50.965Z,6.25
2023-03-02T04:44:18.219Z,5.95
2023-03-02T04:46:45.712Z,6.05
2023-03-02T04:49:13.826Z,6.25
2023-03-02T04:51:43.746Z,6.57
2023-03-02T04:54:22.684Z,9.15
2023-03-02T04:56:49.631Z,8.57
2023-03-02T04:59:18.013Z,8.05
2023-03-02T05:01:45.162Z,8.38
2023-03-02T05:04:12.530Z,7.88
2023-03-02T05:06:39.719Z,6.97
2023-03-02T05:09:06.878Z,6.63
2023-03-02T05:11:34.341Z,6.50
2023-03-02T05:14:03.706Z,6.78
2023-03-02T05:16:34.337Z,8.38
2023-03-02T05:19:03.648Z,6.72
2023-03-02T05:21:30.599Z,6.28
2023-03-02T05:23:57.251Z,6.40
2023-03-02T05:26:24.145Z,7.40
2023-03-02T05:28:52.965Z,7.15
2023-03-02T05:31:32.159Z,7.47
2023-03-02T05:33:58.824Z,8.00
2023-03-02T05:36:25.580Z,7.50
2023-03-02T05:38:52.240Z,7.35
2023-03-02T05:41:23.404Z,7.63
2023-03-02T05:43:50.300Z,7.20
2023-03-02T05:46:21.909Z,7.57
2023-03-02T05:48:50.117Z,6.75
2023-03-02T05:51:16.974Z,7.60
2023-03-02T05:53:43.818Z,8.23
2023-03-02T05:56:10.665Z,7.78
2023-03-02T05:58:37.386Z,8.15
2023-03-02T06:01:09.926Z,7.97
2023-03-02T06:03:36.658Z,8.27
2023-03-02T06:06:03.496Z,7.93
2023-03-02T06:08:30.152Z,8.38
2023-03-02T06:10:57.328Z,8.07
2023-03-02T06:13:24.036Z,8.07
2023-03-02T06:15:53.714Z,7.68
2023-03-02T06:18:20.656Z,7.88
2023-03-02T06:20:47.456Z,6.95
2023-03-02T06:23:14.190Z,8.68
2023-03-02T06:25:43.743Z,7.00
2023-03-02T06:30:37.059Z,7.25
2023-03-02T06:33:03.941Z,8.20
2023-03-02T06:35:30.794Z,7.75
2023-03-02T06:37:57.593Z,7.30
2023-03-02T06:40:24.333Z,8.00
2023-03-02T06:42:51.380Z,7.93
2023-03-02T06:45:18.439Z,7.32
2023-03-02T06:47:45.091Z,9.20
2023-03-02T06:50:12.262Z,9.48
2023-03-02T06:52:38.960Z,9.15
2023-03-02T06:55:06.380Z,8.45
2023-03-02T06:57:35.768Z,8.77
2023-03-02T07:00:09.899Z,8.00
2023-03-02T07:02:37.169Z,9.02
2023-03-02T07:05:04.431Z,8.65
2023-03-02T07:07:31.143Z,9.48
2023-03-02T07:09:57.801Z,9.82
2023-03-02T07:12:24.490Z,12.30
2023-03-02T07:14:51.163Z,13.25
2023-03-02T07:17:17.923Z,13.98
2023-03-02T07:19:44.564Z,15.43
2023-03-02T07:22:11.231Z,18.15
2023-03-02T07:24:38.006Z,17.50
2023-03-02T07:27:04.759Z,16.15
2023-03-02T07:29:31.410Z,17.40
2023-03-02T07:32:00.879Z,13.88
2023-03-02T07:34:28.043Z,13.07
2023-03-02T07:36:55.064Z,12.43
2023-03-02T07:39:22.072Z,14.15
2023-03-02T07:41:48.743Z,12.75
2023-03-02T07:44:15.668Z,14.35
2023-03-02T07:46:42.621Z,14.25
2023-03-02T07:49:09.319Z,14.88
2023-03-02T07:51:36.041Z,14.50
2023-03-02T07:54:05.058Z,15.63
2023-03-02T07:56:34.239Z,15.80
2023-03-02T07:59:01.077Z,15.20
2023-03-02T08:01:27.732Z,14.55
2023-03-02T08:03:54.495Z,14.25
2023-03-02T08:06:21.404Z,15.82
2023-03-02T08:08:48.238Z,14.32
2023-03-02T08:11:17.746Z,15.65
2023-03-02T08:13:45.775Z,15.35
2023-03-02T08:16:14.574Z,14.65
2023-03-02T08:18:41.508Z,15.43
2023-03-02T08:21:16.572Z,15.52
2023-03-02T08:23:43.712Z,13.43
2023-03-02T08:26:13.851Z,15.50
2023-03-02T08:28:41.596Z,14.38
2023-03-02T08:31:09.270Z,14.52
2023-03-02T08:33:36.776Z,14.45
2023-03-02T08:36:11.128Z,14.13
2023-03-02T08:38:37.867Z,13.48
2023-03-02T08:41:09.383Z,13.48
2023-03-02T08:43:36.344Z,13.05
2023-03-02T08:46:03.565Z,12.60
2023-03-02T08:48:30.581Z,13.82
2023-03-02T08:51:00.490Z,13.05
2023-03-02T08:53:29.089Z,12.77
2023-03-02T08:55:57.698Z,12.50
2023-03-02T08:58:25.266Z,12.13
2023-03-02T09:00:52.387Z,11.52
2023-03-02T09:03:19.129Z,11.63
2023-03-02T09:05:46.157Z,11.57
2023-03-02T09:08:13.341Z,11.15
2023-03-02T09:10:40.196Z,10.65
2023-03-02T09:13:08.522Z,11.00
2023-03-02T09:15:35.534Z,11.77
2023-03-02T09:18:02.354Z,11.90
2023-03-02T09:20:29.195Z,12.35
2023-03-02T09:22:55.804Z,11.18
2023-03-02T09:25:22.557Z,11.88
2023-03-02T09:27:49.291Z,11.07
2023-03-02T09:30:16.537Z,11.98
2023-03-02T09:32:43.297Z,12.57
2023-03-02T09:35:10.467Z,12.93
2023-03-02T09:37:41.798Z,12.75
2023-03-02T09:40:19.133Z,10.30
2023-03-02T09:43:04.401Z,11.55
2023-03-02T09:45:50.069Z,11.95
2023-03-02T09:48:38.243Z,13.00
2023-03-02T09:51:11.910Z,12.93
2023-03-02T09:53:47.136Z,13.57
2023-03-02T09:56:17.753Z,14.88
2023-03-02T09:58:54.360Z,13.05
2023-03-02T10:01:31.300Z,12.82
2023-03-02T10:04:08.855Z,12.45
2023-03-02T10:06:35.546Z,13.02
2023-03-02T10:09:02.377Z,13.15
2023-03-02T10:12:12.542Z,11.95
2023-03-02T10:14:44.349Z,11.20
2023-03-02T10:17:37.643Z,12.27
2023-03-02T10:20:14.642Z,12.82
2023-03-02T10:22:48.300Z,12.55
2023-03-02T10:25:32.142Z,12.27
2023-03-02T10:28:12.798Z,14.88
2023-03-02T10:30:43.309Z,14.10
2023-03-02T10:33:16.780Z,14.50
2023-03-02T10:35:51.884Z,15.75
2023-03-02T10:38:21.577Z,14.30
2023-03-02T10:40:48.419Z,14.52
2023-03-02T10:43:19.096Z,15.18
2023-03-02T10:45:57.465Z,13.70
2023-03-02T10:48:24.426Z,12.98
2023-03-02T10:50:55.405Z,13.90
2023-03-02T10:53:22.181Z,14.93
2023-03-02T10:55:51.593Z,14.50
2023-03-02T10:58:31.137Z,14.73
2023-03-02T11:01:07.353Z,13.45
2023-03-02T11:03:34.131Z,15.30
2023-03-02T11:06:18.463Z,14.18
2023-03-02T11:08:45.277Z,14.63
2023-03-02T11:11:23.530Z,13.30
2023-03-02T11:13:50.460Z,14.43
2023-03-02T11:16:17.109Z,13.90
2023-03-02T11:18:58.945Z,12.27
2023-03-02T11:21:55.083Z,13.32
2023-03-02T11:24:29.395Z,13.90
2023-03-02T11:27:08.110Z,13.80
2023-03-02T11:30:04.342Z,13.33
2023-03-02T11:32:45.228Z,12.90
2023-03-02T11:35:40.388Z,12.63
2023-03-02T11:38:30.507Z,12.70
2023-03-02T11:41:14.491Z,12.95
2023-03-02T11:43:42.668Z,12.88
2023-03-02T11:46:24.135Z,11.93
2023-03-02T11:49:00.903Z,12.60
2023-03-02T11:51:33.248Z,13.70
2023-03-02T11:54:11.913Z,12.57
2023-03-02T11:56:40.014Z,12.38
2023-03-02T11:59:20.256Z,12.02
2023-03-02T12:01:51.388Z,12.13
2023-03-02T12:04:33.644Z,13.82
2023-03-02T12:07:03.593Z,11.88
2023-03-02T12:09:37.199Z,11.95
2023-03-02T12:12:35.860Z,13.23
2023-03-02T12:15:03.067Z,12.70
2023-03-02T12:17:33.337Z,13.88
2023-03-02T12:20:09.339Z,12.90
2023-03-02T12:22:37.702Z,13.60
2023-03-02T12:25:05.379Z,13.10
2023-03-02T12:27:38.936Z,12.90
2023-03-02T12:30:17.118Z,12.70
2023-03-02T12:32:58.069Z,12.93
2023-03-02T12:35:26.421Z,13.20
2023-03-02T12:37:58.293Z,13.10
2023-03-02T12:40:41.413Z,14.25
2023-03-02T12:43:25.668Z,13.32
2023-03-02T12:46:17.340Z,13.73
2023-03-02T12:49:04.518Z,13.30
2023-03-02T12:51:55.264Z,12.80
2023-03-02T12:54:28.076Z,13.07
2023-03-02T12:57:15.313Z,13.07
2023-03-02T12:59:43.046Z,14.40
2023-03-02T13:02:09.782Z,12.77
2023-03-02T13:04:36.571Z,13.40
2023-03-02T13:07:03.288Z,13.85
2023-03-02T13:09:31.361Z,13.90
2023-03-02T13:11:58.129Z,13.77
2023-03-02T13:14:27.178Z,12.90
2023-03-02T13:16:56.228Z,13.88
2023-03-02T13:19:24.589Z,14.60
2023-03-02T13:21:51.880Z,14.75
2023-03-02T13:24:46.138Z,15.27
2023-03-02T13:27:17.733Z,15.07
2023-03-02T13:29:45.723Z,14.77
2023-03-02T13:32:35.193Z,14.93
2023-03-02T13:35:03.247Z,15.23
2023-03-02T13:37:35.104Z,14.75
2023-03-02T13:40:04.670Z,14.35
2023-03-02T13:45:28.953Z,14.35
2023-03-02T13:47:58.153Z,14.88
2023-03-02T13:50:28.231Z,14.43
2023-03-02T13:52:58.363Z,13.52
2023-03-02T13:57:53.626Z,13.80
2023-03-02T14:00:24.939Z,15.93
2023-03-02T14:02:51.785Z,14.70
2023-03-02T14:05:27.234Z,15.90
2023-03-02T14:07:54.141Z,15.25
2023-03-02T14:10:21.225Z,14.00
2023-03-02T14:12:58.379Z,14.35
2023-03-02T14:15:25.260Z,14.35
2023-03-02T14:17:51.948Z,13.70
2023-03-02T14:20:20.200Z,14.00
2023-03-02T14:22:48.042Z,14.15
2023-03-02T14:25:15.365Z,15.95
2023-03-02T14:27:43.318Z,14.88
2023-03-02T14:30:19.504Z,16.00
2023-03-02T14:32:46.772Z,17.00
2023-03-02T14:35:15.895Z,17.92
2023-03-02T14:37:49.757Z,17.15
2023-03-02T14:40:18.970Z,17.55
2023-03-02T14:42:45.772Z,18.23
2023-03-02T14:45:13.057Z,17.23
2023-03-02T14:47:39.992Z,18.45
2023-03-02T14:50:07.509Z,18.10
2023-03-02T14:52:41.127Z,18.83
2023-03-02T14:55:15.453Z,18.80
2023-03-02T14:57:42.274Z,19.42
2023-03-02T15:00:13.814Z,18.08
2023-03-02T15:02:40.905Z,19.38
2023-03-02T15:05:10.377Z,18.42
2023-03-02T15:07:39.058Z,19.63
2023-03-02T15:10:07.854Z,18.88
2023-03-02T15:12:34.834Z,19.00
2023-03-02T15:15:01.720Z,20.00
2023-03-02T15:17:28.979Z,19.58
2023-03-02T15:19:56.065Z,18.60
2023-03-02T15:22:23.086Z,17.17
2023-03-02T15:24:49.723Z,17.70
2023-03-02T15:27:17.019Z,18.10
2023-03-02T15:29:48.358Z,17.20
2023-03-02T15:32:16.380Z,18.30
2023-03-02T15:34:43.864Z,16.83
2023-03-02T15:37:12.456Z,17.73
2023-03-02T15:39:40.217Z,18.92
2023-03-02T15:42:07.458Z,18.90
2023-03-02T15:44:34.523Z,17.23
2023-03-02T15:47:01.409Z,15.82
2023-03-02T15:49:29.591Z,16.00
2023-03-02T15:52:00.263Z,16.98
2023-03-02T15:54:29.069Z,17.23
2023-03-02T15:56:56.214Z,15.77
2023-03-02T15:59:28.491Z,17.70
2023-03-02T16:01:59.865Z,16.95
2023-03-02T16:04:28.782Z,17.27
2023-03-02T16:06:56.849Z,14.40
2023-03-02T16:09:25.466Z,17.77
2023-03-02T16:11:52.940Z,19.63
2023-03-02T16:14:20.264Z,19.08
2023-03-02T16:16:47.732Z,18.92
2023-03-02T16:19:19.000Z,21.40
2023-03-02T16:21:47.260Z,21.48
2023-03-02T16:24:16.281Z,21.42
2023-03-02T16:26:46.604Z,21.27
2023-03-02T16:29:14.054Z,21.75
2023-03-02T16:31:42.193Z,22.25
2023-03-02T16:34:09.905Z,22.23
2023-03-02T16:36:39.377Z,24.95
2023-03-02T16:39:07.779Z,25.33
2023-03-02T16:41:35.325Z,22.85
2023-03-02T16:44:02.682Z,24.63
2023-03-02T16:46:32.243Z,22.30
2023-03-02T16:51:26.608Z,26.67
2023-03-02T16:53:54.092Z,24.90
2023-03-02T16:56:21.856Z,25.20
2023-03-02T16:58:49.253Z,25.45
2023-03-02T17:01:19.864Z,27.83
2023-03-02T17:03:49.360Z,27.58
2023-03-02T17:06:19.624Z,29.90
2023-03-02T17:08:46.964Z,27.75
2023-03-02T17:11:14.285Z,26.83
2023-03-02T17:13:41.403Z,27.48
2023-03-02T17:16:08.801Z,28.70
2023-03-02T17:18:36.152Z,27.85
2023-03-02T17:21:05.504Z,26.83
2023-03-02T17:23:33.105Z,27.65
2023-03-02T17:26:00.366Z,29.65
2023-03-02T17:28:27.851Z,27.80
2023-03-02T17:30:55.295Z,28.38
2023-03-02T17:33:22.808Z,28.70
2023-03-02T17:35:50.444Z,27.55
2023-03-02T17:38:17.986Z,28.33
2023-03-02T17:40:45.473Z,30.02
2023-03-02T17:43:12.922Z,28.75
2023-03-02T17:45:40.319Z,30.20
2023-03-02T17:48:07.757Z,31.38
2023-03-02T17:50:35.193Z,30.95
2023-03-02T17:53:03.210Z,30.95
2023-03-02T17:55:30.696Z,31.83
2023-03-02T17:57:58.144Z,31.17
2023-03-02T18:00:25.497Z,33.40
2023-03-02T18:02:53.382Z,30.23
2023-03-02T18:05:21.738Z,31.45
2023-03-02T18:07:49.024Z,30.98
2023-03-02T18:10:16.313Z,29.75
2023-03-02T18:12:43.571Z,30.92
2023-03-02T18:15:12.505Z,31.23
2023-03-02T18:17:39.687Z,31.48
2023-03-02T18:20:07.543Z,32.75
2023-03-02T18:22:34.653Z,32.28
2023-03-02T18:25:02.236Z,32.40
2023-03-02T18:27:29.615Z,30.50
2023-03-02T18:29:56.735Z,30.77
2023-03-02T18:32:23.952Z,32.17
2023-03-02T18:34:51.438Z,28.52
2023-03-02T18:37:18.787Z,28.95
2023-03-02T18:39:46.111Z,29.77
2023-03-02T18:42:13.406Z,28.92
2023-03-02T18:44:40.980Z,29.98
2023-03-02T18:47:08.747Z,30.55
2023-03-02T18:49:35.976Z,29.42
2023-03-02T18:52:06.897Z,28.67
2023-03-02T18:54:34.124Z,30.58
2023-03-02T18:57:03.697Z,30.80
2023-03-02T19:01:58.005Z,28.90
2023-03-02T19:04:26.803Z,29.85
2023-03-02T19:06:56.403Z,31.20
2023-03-02T19:11:50.918Z,30.35
2023-03-02T19:14:18.475Z,36.22
2023-03-02T19:16:46.123Z,37.38
2023-03-02T19:19:13.537Z,32.38
2023-03-02T19:21:46.760Z,35.40
2023-03-02T19:24:13.663Z,33.45
2023-03-02T19:26:40.490Z,32.25
2023-03-02T19:29:07.157Z,31.73
2023-03-02T19:31:38.185Z,30.08
2023-03-02T19:34:05.526Z,28.60
2023-03-02T19:36:32.163Z,28.27
2023-03-02T19:38:58.982Z,29.17
2023-03-02T19:41:25.658Z,29.40
2023-03-02T19:43:52.507Z,28.00
2023-03-02T19:46:19.338Z,29.95
2023-03-02T19:48:46.142Z,27.20
2023-03-02T19:51:14.983Z,28.38
2023-03-02T19:53:43.126Z,28.65
2023-03-02T19:56:14.262Z,28.65
2023-03-02T19:58:47.638Z,29.73
2023-03-02T20:01:21.832Z,31.63
2023-03-02T20:03:51.676Z,31.33
2023-03-02T20:08:48.125Z,28.77
2023-03-02T20:11:15.624Z,30.60
2023-03-02T20:13:42.400Z,31.15
2023-03-02T20:16:12.439Z,30.85
2023-03-02T20:18:39.421Z,29.98
2023-03-02T20:21:06.303Z,30.85
2023-03-02T20:23:33.097Z,31.38
2023-03-02T20:25:59.880Z,31.48
2023-03-02T20:28:26.751Z,31.38
2023-03-02T20:30:59.248Z,31.17
2023-03-02T20:33:30.220Z,29.17
2023-03-02T20:35:58.933Z,28.75
2023-03-02T20:38:31.063Z,28.08
2023-03-02T20:40:57.958Z,28.20
2023-03-02T20:43:25.452Z,28.55
2023-03-02T20:45:52.355Z,26.55
2023-03-02T20:48:24.423Z,31.48
2023-03-02T20:50:51.796Z,28.05
2023-03-02T20:53:19.439Z,28.08
2023-03-02T20:55:46.726Z,28.77
2023-03-02T20:58:14.092Z,30.20
2023-03-02T21:00:41.451Z,27.90
2023-03-02T21:03:09.579Z,29.88
2023-03-02T21:05:41.041Z,29.73
2023-03-02T21:08:12.647Z,30.50
2023-03-02T21:10:39.527Z,31.90
2023-03-02T21:13:07.666Z,32.28
2023-03-02T21:15:35.480Z,31.73
2023-03-02T21:18:02.435Z,33.08
2023-03-02T21:20:32.796Z,32.90
2023-03-02T21:22:59.811Z,32.38
2023-03-02T21:25:27.112Z,32.55
2023-03-02T21:27:54.572Z,31.88
2023-03-02T21:30:25.821Z,31.50
2023-03-02T21:32:52.524Z,33.53
2023-03-02T21:35:20.940Z,33.28
2023-03-02T21:37:53.797Z,34.33
2023-03-02T21:40:25.529Z,36.88
2023-03-02T21:42:52.768Z,33.92
2023-03-02T21:45:20.197Z,34.67
2023-03-02T21:47:47.179Z,33.47
2023-03-02T21:50:18.995Z,35.25
2023-03-02T21:52:45.677Z,35.28
2023-03-02T21:55:13.310Z,33.78
2023-03-02T21:57:40.831Z,32.60
2023-03-02T22:00:10.462Z,36.15
2023-03-02T22:02:37.552Z,34.05
2023-03-02T22:05:04.803Z,34.92
2023-03-02T22:07:31.695Z,33.17
2023-03-02T22:09:58.452Z,35.85
2023-03-02T22:12:25.121Z,34.92
2023-03-02T22:14:53.516Z,38.70
2023-03-02T22:17:23.704Z,37.25
2023-03-02T22:19:52.360Z,36.72
2023-03-02T22:22:24.356Z,35.00
2023-03-02T22:24:52.517Z,37.47
2023-03-02T22:27:25.476Z,36.42
2023-03-02T22:29:55.252Z,36.00
2023-03-02T22:32:36.498Z,33.40
2023-03-02T22:35:21.166Z,33.53
2023-03-02T22:37:48.893Z,32.75
2023-03-02T22:40:29.039Z,32.90
2023-03-02T22:43:21.871Z,35.35
2023-03-02T22:45:48.684Z,33.50
2023-03-02T22:48:23.941Z,31.25
2023-03-02T22:50:52.749Z,33.75
2023-03-02T22:53:22.563Z,33.33
2023-03-02T22:55:49.339Z,36.95
2023-03-02T22:58:19.393Z,36.55
2023-03-02T23:00:47.900Z,37.15
2023-03-02T23:03:18.633Z,33.75
2023-03-02T23:05:49.095Z,34.45
2023-03-02T23:08:26.359Z,34.53
2023-03-02T23:10:57.587Z,33.03
2023-03-02T23:13:40.033Z,32.42
2023-03-02T23:16:17.599Z,29.73
2023-03-02T23:18:45.085Z,29.00
2023-03-02T23:21:16.608Z,25.58
2023-03-02T23:23:43.313Z,25.95
2023-03-02T23:26:10.111Z,27.30
2023-03-02T23:28:36.861Z,27.65
2023-03-02T23:31:04.037Z,28.48
2023-03-02T23:33:30.862Z,31.23
2023-03-02T23:35:57.764Z,30.17
2023-03-02T23:38:24.468Z,31.10
2023-03-02T23:40:51.141Z,30.48
2023-03-02T23:43:18.022Z,34.22
2023-03-02T23:45:44.828Z,31.73
2023-03-02T23:48:11.456Z,31.70
2023-03-02T23:50:38.306Z,32.30
2023-03-02T23:53:05.094Z,32.03
2023-03-02T23:55:32.407Z,32.10
2023-03-02T23:58:02.291Z,31.88
